Time;durP1;ratioP1;P1;durP2;ratioP2;P2;SDS_P1;SDS_P2;PMS_P1;PMS_P2;Temp;Humidity;BMP_temperature;BMP_pressure;BME280_temperature;BME280_humidity;BME280_pressure;Samples;Min_cycle;Max_cycle;Signal;HPM_P1;HPM_P2
2022/07/05 00:00:08;;;;;;;12.40;7.75;;;;;;;20.34;61.79;100218.89;1722789;82;21000;-77
2022/07/05 00:02:41;;;;;;;12.53;7.15;;;;;;;20.39;61.67;100221.84;1713622;82;21040;-77
2022/07/05 00:05:07;;;;;;;7.20;6.50;;;;;;;20.39;61.87;100217.31;1723324;81;21024;-76
2022/07/05 00:07:35;;;;;;;9.20;6.72;;;;;;;20.37;62.04;100213.17;1742753;82;21481;-76
2022/07/05 00:10:03;;;;;;;9.78;7.20;;;;;;;20.34;62.11;100211.67;1741601;82;21848;-77
2022/07/05 00:12:32;;;;;;;9.55;6.55;;;;;;;20.34;62.02;100212.18;1725959;82;21444;-76
2022/07/05 00:14:59;;;;;;;8.73;6.70;;;;;;;20.32;62.04;100204.33;1721225;82;21059;-76
2022/07/05 00:17:26;;;;;;;9.70;7.53;;;;;;;20.31;62.19;100205.35;1732759;81;21063;-77
2022/07/05 00:19:53;;;;;;;8.85;7.33;;;;;;;20.29;62.25;100208.73;1715940;82;21095;-77
2022/07/05 00:22:19;;;;;;;8.55;7.08;;;;;;;20.27;62.28;100214.81;1729081;81;21970;-76
2022/07/05 00:24:46;;;;;;;8.13;6.70;;;;;;;20.26;62.40;100215.80;1714469;82;20904;-76
2022/07/05 00:27:13;;;;;;;9.70;7.37;;;;;;;20.23;62.54;100211.66;1732607;82;21465;-77
2022/07/05 00:29:40;;;;;;;10.45;7.87;;;;;;;20.19;62.55;100214.41;1748965;80;20944;-77
2022/07/05 00:32:07;;;;;;;8.40;7.30;;;;;;;20.19;62.50;100218.42;1739127;81;21110;-76
2022/07/05 00:34:34;;;;;;;9.20;7.25;;;;;;;20.16;62.49;100217.44;1722794;81;21791;-76
2022/07/05 00:37:01;;;;;;;10.00;7.65;;;;;;;20.14;62.50;100210.61;1697628;83;20971;-76
2022/07/05 00:39:28;;;;;;;11.68;7.85;;;;;;;20.14;62.45;100214.63;1731305;81;21391;-75
2022/07/05 00:41:55;;;;;;;10.20;7.80;;;;;;;20.15;62.50;100208.25;1689375;84;21067;-76
2022/07/05 00:44:34;;;;;;;8.95;7.58;;;;;;;20.13;62.66;100207.61;1679809;84;20979;-76
2022/07/05 00:47:03;;;;;;;7.97;7.15;;;;;;;20.11;62.88;100215.02;1693602;84;21944;-76
2022/07/05 00:49:31;;;;;;;9.23;7.60;;;;;;;20.07;63.09;100212.37;1684378;83;21544;-76
2022/07/05 00:51:59;;;;;;;9.38;7.60;;;;;;;20.02;63.29;100222.33;1699211;82;21562;-76
2022/07/05 00:54:28;;;;;;;8.08;7.00;;;;;;;19.97;63.48;100223.37;1697823;84;21503;-76
2022/07/05 00:56:54;;;;;;;9.50;6.85;;;;;;;19.91;63.38;100229.00;1697623;82;21103;-76
2022/07/05 00:59:22;;;;;;;8.93;7.08;;;;;;;19.86;63.27;100231.39;1689465;82;22365;-76
2022/07/05 01:01:48;;;;;;;8.78;7.65;;;;;;;19.80;63.24;100233.48;1696743;82;21071;-76
2022/07/05 01:04:15;;;;;;;9.73;7.78;;;;;;;19.77;63.33;100234.34;1696500;82;21510;-77
2022/07/05 01:06:45;;;;;;;10.43;7.30;;;;;;;19.72;63.42;100230.89;1689435;82;21031;-77
2022/07/05 01:09:15;;;;;;;7.90;7.10;;;;;;;19.69;63.44;100232.61;1685066;84;21562;-78
2022/07/05 01:11:44;;;;;;;13.90;7.97;;;;;;;19.66;63.51;100234.30;1679353;84;21988;-78
2022/07/05 01:14:18;;;;;;;10.40;7.78;;;;;;;19.61;63.64;100233.52;1694262;84;21039;-78
2022/07/05 01:16:44;;;;;;;8.18;6.83;;;;;;;19.59;63.96;100221.30;1688484;84;21023;-79
2022/07/05 01:19:12;;;;;;;7.95;6.92;;;;;;;19.57;64.19;100222.00;1700958;84;20976;-77
2022/07/05 01:21:41;;;;;;;9.43;7.22;;;;;;;19.52;64.30;100228.41;1684461;84;21011;-78
2022/07/05 01:24:11;;;;;;;9.00;7.53;;;;;;;19.48;64.36;100219.05;1679791;84;22535;-78
2022/07/05 01:26:38;;;;;;;11.35;7.90;;;;;;;19.42;64.37;100220.13;1684672;84;20979;-78
2022/07/05 01:29:07;;;;;;;9.40;7.97;;;;;;;19.38;64.49;100220.66;1676301;84;21178;-78
2022/07/05 01:31:37;;;;;;;10.30;7.95;;;;;;;19.38;64.60;100226.02;1649287;85;21494;-76
2022/07/05 01:34:05;;;;;;;9.55;8.48;;;;;;;19.35;64.73;100235.25;1733503;80;21012;-77
2022/07/05 01:36:33;;;;;;;10.90;9.00;;;;;;;19.32;64.84;100228.10;1723574;81;22516;-77
2022/07/05 01:39:02;;;;;;;12.23;8.43;;;;;;;19.29;64.89;100227.10;1731794;82;20940;-76
2022/07/05 01:41:30;;;;;;;10.28;9.05;;;;;;;19.29;64.98;100233.29;1724024;81;21434;-76
2022/07/05 01:43:58;;;;;;;11.22;9.55;;;;;;;19.27;65.03;100227.80;1734184;82;21229;-76
2022/07/05 01:46:25;;;;;;;10.53;9.30;;;;;;;19.23;64.99;100225.17;1739796;82;20977;-76
2022/07/05 01:48:56;;;;;;;11.63;9.10;;;;;;;19.23;64.94;100226.00;1733257;81;22456;-79
2022/07/05 01:51:26;;;;;;;10.60;9.50;;;;;;;19.25;64.90;100232.00;1728104;82;21004;-78
2022/07/05 01:53:53;;;;;;;12.43;9.55;;;;;;;19.28;64.83;100231.62;1725495;82;21035;-78
2022/07/05 01:56:19;;;;;;;12.20;9.80;;;;;;;19.29;64.94;100232.45;1728076;82;21008;-80
2022/07/05 01:58:46;;;;;;;13.98;10.80;;;;;;;19.27;65.09;100235.83;1728206;82;20992;-78
2022/07/05 02:01:12;;;;;;;15.18;10.08;;;;;;;19.25;65.08;100237.36;1738322;82;21900;-79
2022/07/05 02:03:40;;;;;;;11.38;9.68;;;;;;;19.24;65.12;100242.39;1739501;82;21733;-79
2022/07/05 02:06:10;;;;;;;12.03;9.73;;;;;;;19.21;65.16;100238.74;1730859;82;21443;-79
2022/07/05 02:08:36;;;;;;;10.70;9.60;;;;;;;19.19;65.19;100244.77;1725663;81;21010;-79
2022/07/05 02:11:05;;;;;;;12.00;9.65;;;;;;;19.18;65.19;100236.41;1725184;81;20981;-79
2022/07/05 02:13:32;;;;;;;12.58;10.25;;;;;;;19.21;65.15;100239.25;1727281;82;22043;-80
2022/07/05 02:15:59;;;;;;;14.53;10.28;;;;;;;19.19;65.26;100236.73;1742565;80;20944;-79
2022/07/05 02:18:26;;;;;;;14.40;10.45;;;;;;;19.19;65.22;100243.94;1738241;82;21297;-76
2022/07/05 02:20:54;;;;;;;14.10;10.60;;;;;;;19.18;65.27;100241.77;1742012;81;21036;-77
2022/07/05 02:23:21;;;;;;;13.45;10.60;;;;;;;19.18;65.26;100239.59;1736216;80;21047;-77
2022/07/05 02:25:48;;;;;;;14.60;10.40;;;;;;;19.19;65.26;100240.74;1741560;81;21997;-77
2022/07/05 02:28:15;;;;;;;14.53;10.38;;;;;;;19.22;65.32;100241.74;1725929;81;20992;-77
2022/07/05 02:30:44;;;;;;;12.40;10.38;;;;;;;19.22;65.31;100243.08;1750856;80;21035;-76
2022/07/05 02:33:11;;;;;;;13.18;9.93;;;;;;;19.23;65.47;100243.91;1752426;80;20951;-78
2022/07/05 02:35:37;;;;;;;13.72;10.03;;;;;;;19.23;65.70;100244.74;1727792;81;20980;-75
2022/07/05 02:38:04;;;;;;;12.30;10.23;;;;;;;19.25;65.95;100240.55;1744823;81;21986;-78
2022/07/05 02:40:31;;;;;;;12.15;10.90;;;;;;;19.24;66.22;100243.73;1742842;80;20940;-77
2022/07/05 02:42:59;;;;;;;12.70;11.08;;;;;;;19.26;66.36;100246.22;1749036;80;20983;-78
2022/07/05 02:45:26;;;;;;;11.88;10.43;;;;;;;19.26;66.49;100241.70;1746921;80;20968;-78
2022/07/05 02:47:55;;;;;;;13.62;11.15;;;;;;;19.32;66.59;100246.84;1739629;81;20972;-77
2022/07/05 02:50:21;;;;;;;13.22;10.78;;;;;;;19.37;66.40;100249.28;1736911;81;21893;-76
2022/07/05 02:52:51;;;;;;;12.80;11.15;;;;;;;19.44;66.14;100255.59;1759042;81;21312;-76
2022/07/05 02:55:18;;;;;;;16.48;11.18;;;;;;;19.52;65.95;100244.48;1758607;81;20980;-79
2022/07/05 02:57:46;;;;;;;14.60;11.10;;;;;;;19.59;65.81;100254.31;1745233;81;20996;-79
2022/07/05 03:00:14;;;;;;;18.15;11.73;;;;;;;19.62;65.73;100258.47;1741409;81;21480;-79
2022/07/05 03:02:42;;;;;;;14.25;11.08;;;;;;;19.62;65.74;100250.43;1754921;81;21946;-79
2022/07/05 03:05:11;;;;;;;12.50;11.15;;;;;;;19.63;65.83;100251.58;1734810;81;20948;-79
2022/07/05 03:07:39;;;;;;;13.00;11.38;;;;;;;19.69;65.81;100245.50;1747545;81;20952;-79
2022/07/05 03:10:07;;;;;;;12.40;10.82;;;;;;;19.79;65.94;100252.44;1743983;81;20976;-79
2022/07/05 03:12:34;;;;;;;16.45;11.08;;;;;;;19.89;65.85;100247.13;1732154;81;21121;-80
2022/07/05 03:15:02;;;;;;;14.53;11.05;;;;;;;19.99;65.51;100248.17;1736647;80;22873;-79
2022/07/05 03:17:29;;;;;;;12.37;10.93;;;;;;;20.08;65.19;100249.75;1745213;81;20940;-79
2022/07/05 03:19:57;;;;;;;11.40;10.20;;;;;;;20.17;64.92;100249.97;1743890;80;20975;-79
2022/07/05 03:22:25;;;;;;;12.78;11.12;;;;;;;20.27;64.61;100251.84;1748631;81;20999;-79
2022/07/05 03:24:52;;;;;;;12.05;10.58;;;;;;;20.38;64.28;100247.02;1738422;80;21625;-79
2022/07/05 03:27:19;;;;;;;14.18;10.58;;;;;;;20.45;64.17;100244.73;1747673;81;22570;-79
2022/07/05 03:29:49;;;;;;;12.53;10.82;;;;;;;20.54;64.15;100254.34;1730960;81;21004;-79
2022/07/05 03:32:16;;;;;;;13.70;10.55;;;;;;;20.59;63.95;100244.39;1727426;82;20992;-79
2022/07/05 03:34:44;;;;;;;12.68;10.80;;;;;;;20.61;63.74;100249.56;1725465;82;21008;-79
2022/07/05 03:37:11;;;;;;;12.18;10.25;;;;;;;20.63;63.75;100248.34;1721565;82;21008;-79
2022/07/05 03:39:38;;;;;;;12.70;10.50;;;;;;;20.63;63.61;100256.40;1717779;82;21946;-79
2022/07/05 03:42:06;;;;;;;16.67;10.50;;;;;;;20.63;63.54;100259.59;1735395;82;20996;-80
2022/07/05 03:44:33;;;;;;;15.68;11.63;;;;;;;20.62;63.48;100263.30;1745279;82;21341;-79
2022/07/05 03:47:01;;;;;;;15.83;11.12;;;;;;;20.62;63.58;100256.59;1733935;82;21070;-79
2022/07/05 03:49:28;;;;;;;14.30;10.68;;;;;;;20.64;63.68;100263.94;1730389;82;21458;-77
2022/07/05 03:51:55;;;;;;;13.50;10.55;;;;;;;20.68;63.84;100271.95;1720232;82;21813;-78
2022/07/05 03:54:22;;;;;;;14.13;11.30;;;;;;;20.69;63.84;100274.44;1717464;82;20997;-77
2022/07/05 03:56:49;;;;;;;14.10;10.48;;;;;;;20.76;63.91;100265.13;1706936;82;21054;-77
2022/07/05 03:59:16;;;;;;;16.60;11.05;;;;;;;20.84;63.89;100270.34;1725913;82;21047;-77
2022/07/05 04:01:44;;;;;;;13.03;10.40;;;;;;;20.89;63.88;100269.27;1729444;80;21095;-77
2022/07/05 04:04:11;;;;;;;17.20;11.10;;;;;;;20.99;63.92;100264.93;1728283;82;21985;-76
2022/07/05 04:06:38;;;;;;;15.48;10.63;;;;;;;21.09;63.93;100256.86;1678785;84;21197;-77
2022/07/05 04:09:05;;;;;;;12.73;10.85;;;;;;;21.22;63.91;100262.02;1727389;82;21012;-77
2022/07/05 04:11:32;;;;;;;13.98;10.93;;;;;;;21.34;63.65;100259.19;1728781;82;21008;-77
2022/07/05 04:13:58;;;;;;;12.33;10.75;;;;;;;21.47;63.49;100260.62;1732182;82;20968;-75
2022/07/05 04:16:26;;;;;;;14.93;10.70;;;;;;;21.62;63.51;100255.16;1725272;80;22322;-77
2022/07/05 04:18:53;;;;;;;12.30;10.32;;;;;;;21.75;63.18;100253.89;1736807;82;21074;-77
2022/07/05 04:21:21;;;;;;;15.08;10.50;;;;;;;21.90;62.96;100261.82;1738520;82;20972;-76
2022/07/05 04:23:48;;;;;;;13.70;10.45;;;;;;;22.04;62.62;100264.91;1733026;82;20988;-78
2022/07/05 04:26:16;;;;;;;11.05;9.03;;;;;;;22.21;62.20;100264.11;1718099;82;21008;-78
2022/07/05 04:28:44;;;;;;;13.43;9.53;;;;;;;22.36;62.00;100264.77;1666193;84;22781;-78
2022/07/05 04:31:13;;;;;;;13.50;9.20;;;;;;;22.51;61.63;100268.16;1706593;83;20967;-75
2022/07/05 04:33:42;;;;;;;12.10;9.03;;;;;;;22.68;60.84;100271.31;1697300;82;21089;-75
2022/07/05 04:36:10;;;;;;;15.18;9.33;;;;;;;22.84;60.45;100267.43;1670539;84;21380;-76
2022/07/05 04:38:37;;;;;;;10.43;9.33;;;;;;;23.00;60.42;100265.70;1683546;84;21079;-78
2022/07/05 04:41:04;;;;;;;12.43;9.08;;;;;;;23.14;60.34;100263.84;1705485;82;21951;-73
2022/07/05 04:43:32;;;;;;;13.38;9.30;;;;;;;23.26;60.09;100259.52;1675173;84;20904;-80
2022/07/05 04:45:59;;;;;;;15.90;10.18;;;;;;;23.41;59.98;100265.50;1681102;83;21097;-76
2022/07/05 04:48:26;;;;;;;14.93;9.13;;;;;;;23.56;59.58;100266.65;1655027;85;21522;-77
2022/07/05 04:50:54;;;;;;;37.33;30.55;;;;;;;23.71;59.46;100259.70;1665921;84;21036;-77
2022/07/05 04:53:22;;;;;;;72.32;64.58;;;;;;;23.84;58.46;100254.30;1693655;83;22537;-79
2022/07/05 04:55:49;;;;;;;17.02;14.35;;;;;;;23.99;58.04;100262.12;1676398;84;21019;-76
2022/07/05 04:58:15;;;;;;;17.90;16.15;;;;;;;24.16;57.28;100261.14;1702521;83;21434;-75
2022/07/05 05:00:42;;;;;;;10.50;8.00;;;;;;;24.33;56.34;100261.53;1699810;82;21014;-76
2022/07/05 05:03:08;;;;;;;8.55;7.12;;;;;;;24.49;55.66;100259.15;1702286;82;20963;-78
2022/07/05 05:05:35;;;;;;;8.48;6.42;;;;;;;24.65;54.98;100260.53;1702360;83;21929;-85
2022/07/05 05:08:02;;;;;;;8.50;6.85;;;;;;;24.80;54.74;100257.52;1708541;83;21084;-74
2022/07/05 05:10:29;;;;;;;10.80;6.83;;;;;;;24.94;54.41;100255.57;1698893;83;21532;-71
2022/07/05 05:12:55;;;;;;;10.40;7.37;;;;;;;25.08;54.38;100259.33;1689209;83;21474;-73
2022/07/05 05:15:23;;;;;;;20.30;7.78;;;;;;;25.22;54.34;100260.59;1687311;83;21093;-74
2022/07/05 05:17:49;;;;;;;10.50;7.65;;;;;;;25.32;54.29;100255.52;1686780;83;21941;-76
2022/07/05 05:20:17;;;;;;;8.13;7.05;;;;;;;25.44;54.10;100261.03;1677746;85;21573;-78
2022/07/05 05:22:45;;;;;;;9.98;7.70;;;;;;;25.52;54.10;100257.52;1684760;85;21112;-76
2022/07/05 05:25:12;;;;;;;10.80;7.00;;;;;;;25.64;54.15;100265.20;1679844;84;20992;-76
2022/07/05 05:27:47;;;;;;;9.88;7.58;;;;;;;25.78;54.16;100265.11;1681946;84;21066;-81
2022/07/05 05:30:14;;;;;;;10.50;7.00;;;;;;;25.90;53.13;100257.91;1689856;84;21788;-75
2022/07/05 05:32:41;;;;;;;8.70;6.78;;;;;;;26.02;53.08;100264.21;1677043;84;21060;-79
2022/07/05 05:35:08;;;;;;;9.83;6.65;;;;;;;26.12;52.61;100263.69;1684564;83;21047;-79
2022/07/05 05:37:47;;;;;;;8.23;6.17;;;;;;;26.20;52.43;100262.03;1705159;84;21085;-83
2022/07/05 05:40:14;;;;;;;9.63;6.03;;;;;;;26.30;52.31;100261.49;1686414;83;21103;-84
2022/07/05 05:42:41;;;;;;;7.67;5.22;;;;;;;26.42;51.55;100261.05;1726082;83;22486;-78
2022/07/05 05:45:08;;;;;;;6.87;5.10;;;;;;;26.48;50.30;100261.50;1692321;83;20987;-78
2022/07/05 05:47:46;;;;;;;7.58;5.60;;;;;;;26.49;49.92;100263.98;1691232;84;20995;-79
2022/07/05 05:50:13;;;;;;;6.58;5.00;;;;;;;26.53;49.73;100261.63;1673138;83;20967;-82
2022/07/05 05:52:40;;;;;;;8.53;5.65;;;;;;;26.56;49.55;100262.55;1663540;85;20982;-81
2022/07/05 05:55:07;;;;;;;6.45;5.35;;;;;;;26.61;49.10;100250.47;1665560;84;21761;-85
2022/07/05 05:57:35;;;;;;;8.13;5.30;;;;;;;26.68;49.20;100252.56;1672303;84;21069;-85
2022/07/05 06:00:04;;;;;;;10.20;5.00;;;;;;;26.78;49.13;100256.91;1674964;83;20974;-80
2022/07/05 06:02:33;;;;;;;5.90;5.30;;;;;;;26.87;48.63;100256.05;1686722;84;20975;-81
2022/07/05 06:04:59;;;;;;;12.40;5.87;;;;;;;26.97;48.70;100257.66;1664604;84;21099;-82
2022/07/05 06:07:26;;;;;;;10.50;5.80;;;;;;;27.06;47.79;100258.19;1662783;84;21960;-80
2022/07/05 06:09:53;;;;;;;13.13;5.55;;;;;;;27.14;47.92;100259.21;1673610;83;20975;-82
2022/07/05 06:12:20;;;;;;;9.25;5.53;;;;;;;27.25;47.46;100258.93;1690385;83;21370;-81
2022/07/05 06:14:47;;;;;;;10.53;5.80;;;;;;;27.35;47.07;100257.82;1676613;83;21022;-80
2022/07/05 06:17:13;;;;;;;6.20;5.45;;;;;;;27.45;47.25;100251.28;1689206;83;21056;-81
2022/07/05 06:19:40;;;;;;;7.12;5.10;;;;;;;27.57;46.93;100256.70;1671605;84;22922;-79
2022/07/05 06:22:06;;;;;;;5.87;5.25;;;;;;;27.69;46.08;100252.65;1672354;84;21565;-80
2022/07/05 06:24:33;;;;;;;8.15;4.92;;;;;;;27.80;45.69;100255.38;1670879;85;21155;-83
2022/07/05 06:27:00;;;;;;;10.93;5.75;;;;;;;27.88;45.35;100249.56;1700464;82;20976;-80
2022/07/05 06:29:26;;;;;;;9.73;5.28;;;;;;;27.95;44.97;100250.27;1692140;84;21059;-79
2022/07/05 06:31:53;;;;;;;5.55;4.80;;;;;;;28.03;45.37;100243.64;1662478;85;21933;-79
2022/07/05 06:34:19;;;;;;;8.73;5.10;;;;;;;28.16;44.75;100246.61;1698453;83;21447;-78
2022/07/05 06:36:46;;;;;;;5.42;3.90;;;;;;;28.30;44.85;100249.39;1719853;83;21038;-82
2022/07/05 06:39:12;;;;;;;7.12;4.33;;;;;;;28.44;44.09;100245.31;1678249;84;21439;-76
2022/07/05 06:41:39;;;;;;;5.33;4.37;;;;;;;28.59;43.61;100241.25;1673809;85;20931;-82
2022/07/05 06:44:05;;;;;;;4.65;4.25;;;;;;;28.72;43.35;100237.69;1684543;84;21804;-78
2022/07/05 06:46:32;;;;;;;8.70;4.03;;;;;;;28.80;42.91;100240.55;1661685;84;20979;-79
2022/07/05 06:48:58;;;;;;;7.70;4.00;;;;;;;28.86;42.66;100239.58;1692002;83;21433;-76
2022/07/05 06:51:25;;;;;;;5.80;3.75;;;;;;;28.95;42.03;100244.09;1696486;83;21019;-76
2022/07/05 06:53:52;;;;;;;3.65;3.25;;;;;;;29.05;40.11;100243.75;1701418;83;21312;-77
2022/07/05 06:56:18;;;;;;;5.05;3.47;;;;;;;29.11;39.41;100243.28;1708659;82;22676;-77
2022/07/05 06:58:45;;;;;;;7.35;3.10;;;;;;;29.17;40.28;100242.30;1704879;81;21057;-76
2022/07/05 07:01:12;;;;;;;6.58;3.20;;;;;;;29.26;39.99;100239.46;1696223;82;21049;-76
2022/07/05 07:03:40;;;;;;;7.22;5.42;;;;;;;29.36;39.92;100241.52;1689968;83;21131;-80
2022/07/05 07:06:07;;;;;;;6.87;6.12;;;;;;;29.46;41.61;100245.75;1680243;84;21525;-77
2022/07/05 07:11:20;;;;;;;7.53;6.80;;;;;;;29.57;45.50;100243.50;1696132;84;21011;-77
2022/07/05 07:13:48;;;;;;;10.82;6.70;;;;;;;29.53;46.07;100245.08;1707656;83;21485;-76
2022/07/05 07:16:14;;;;;;;8.00;6.78;;;;;;;29.53;46.62;100244.23;1698042;83;21082;-75
2022/07/05 07:18:42;;;;;;;9.23;7.00;;;;;;;29.57;46.44;100244.86;1698331;83;21105;-76
2022/07/05 07:21:08;;;;;;;10.93;6.60;;;;;;;29.57;46.17;100246.75;1665729;84;21925;-79
2022/07/05 07:23:36;;;;;;;9.28;6.28;;;;;;;29.56;46.72;100253.28;1673744;83;21550;-80
2022/07/05 07:26:03;;;;;;;8.55;6.15;;;;;;;29.54;46.33;100250.81;1676453;84;21482;-78
2022/07/05 07:28:29;;;;;;;6.80;5.90;;;;;;;29.49;46.51;100253.98;1671163;83;21105;-78
2022/07/05 07:30:56;;;;;;;7.05;5.75;;;;;;;29.46;45.28;100249.02;1662725;84;21098;-77
2022/07/05 07:33:23;;;;;;;7.35;5.70;;;;;;;29.42;45.71;100250.02;1688732;84;21956;-78
2022/07/05 07:35:49;;;;;;;11.93;5.50;;;;;;;29.43;45.39;100261.73;1728402;81;21007;-77
2022/07/05 07:38:16;;;;;;;7.08;5.28;;;;;;;29.36;45.46;100264.64;1690849;84;21066;-78
2022/07/05 07:40:42;;;;;;;9.68;5.35;;;;;;;29.27;45.07;100258.79;1682051;84;21363;-78
2022/07/05 07:43:09;;;;;;;9.75;5.10;;;;;;;29.22;45.78;100265.49;1693018;84;21564;-75
2022/07/05 07:45:35;;;;;;;6.17;4.90;;;;;;;29.18;45.86;100269.79;1706697;84;21954;-77
2022/07/05 07:48:02;;;;;;;7.03;4.80;;;;;;;29.22;45.94;100267.39;1697100;84;22109;-77
2022/07/05 07:50:29;;;;;;;6.20;4.70;;;;;;;29.22;45.94;100267.39;1680910;82;21046;-78
2022/07/05 07:52:56;;;;;;;7.95;4.60;;;;;;;29.22;45.87;100266.85;1689511;84;21102;-77
2022/07/05 07:55:23;;;;;;;7.20;4.60;;;;;;;29.31;45.55;100265.91;1678570;85;21034;-77
2022/07/05 07:57:49;;;;;;;6.83;4.25;;;;;;;29.39;45.24;100264.14;1688726;84;21990;-77
2022/07/05 08:00:16;;;;;;;6.95;4.58;;;;;;;29.48;45.28;100266.77;1690792;84;21055;-78
2022/07/05 08:02:42;;;;;;;6.62;4.60;;;;;;;29.66;45.15;100261.59;1677291;84;21534;-80
2022/07/05 08:05:10;;;;;;;7.53;4.25;;;;;;;29.84;44.57;100262.67;1688223;84;21056;-79
2022/07/05 08:07:36;;;;;;;7.00;4.60;;;;;;;29.74;45.04;100263.89;1703450;84;21349;-79
2022/07/05 08:10:05;;;;;;;5.47;4.22;;;;;;;29.66;45.65;100267.03;1680164;84;21773;-80
2022/07/05 08:12:32;;;;;;;7.00;4.17;;;;;;;29.66;45.16;100260.23;1679119;84;21059;-81
2022/07/05 08:14:59;;;;;;;5.95;4.03;;;;;;;29.68;44.79;100259.97;1696506;84;21110;-76
2022/07/05 08:17:25;;;;;;;5.80;4.12;;;;;;;29.64;44.95;100262.38;1695104;84;21039;-75
2022/07/05 08:22:37;;;;;;;6.60;4.10;;;;;;;29.51;44.90;100262.17;1684792;84;21940;-77
2022/07/05 08:25:05;;;;;;;8.18;4.40;;;;;;;29.44;45.46;100264.77;1692172;84;21066;-76
2022/07/05 08:27:32;;;;;;;8.93;4.05;;;;;;;29.34;45.24;100256.73;1684861;84;21051;-82
2022/07/05 08:29:59;;;;;;;5.17;4.08;;;;;;;29.28;45.04;100256.35;1687569;84;21682;-78
2022/07/05 08:32:26;;;;;;;8.05;4.30;;;;;;;29.28;45.04;100256.35;1693839;83;21124;-84
2022/07/05 08:34:52;;;;;;;6.05;4.15;;;;;;;29.22;45.39;100254.61;1697386;83;21898;-79
2022/07/05 08:37:18;;;;;;;5.87;3.67;;;;;;;29.22;44.87;100250.53;1703214;83;21061;-83
2022/07/05 08:39:45;;;;;;;7.58;3.80;;;;;;;29.29;44.95;100255.28;1714653;83;21094;-81
2022/07/05 08:42:11;;;;;;;5.83;3.90;;;;;;;29.32;44.26;100253.95;1710543;83;21631;-82
2022/07/05 08:44:39;;;;;;;5.53;3.75;;;;;;;29.41;45.05;100248.92;1695462;83;21089;-82
2022/07/05 08:47:11;;;;;;;6.65;3.85;;;;;;;29.48;44.68;100247.72;1698555;83;21598;-80
2022/07/05 08:49:40;;;;;;;5.20;3.50;;;;;;;29.59;43.58;100245.42;1693488;83;21057;-81
2022/07/05 08:52:10;;;;;;;6.30;3.47;;;;;;;29.59;43.58;100245.42;1711124;83;21076;-82
2022/07/05 08:54:38;;;;;;;5.47;3.52;;;;;;;29.69;42.96;100245.28;1692307;83;21108;-82
2022/07/05 08:57:05;;;;;;;6.67;3.75;;;;;;;29.69;42.96;100245.28;1693460;83;21116;-81
2022/07/05 08:59:32;;;;;;;5.55;3.65;;;;;;;29.80;43.24;100245.17;1693460;83;21572;-80
2022/07/05 09:01:59;;;;;;;5.12;3.80;;;;;;;29.95;42.95;100245.92;1705885;83;21081;-79
2022/07/05 09:04:26;;;;;;;8.10;4.20;;;;;;;30.07;41.95;100248.02;1714946;83;21303;-80
2022/07/05 09:06:55;;;;;;;6.97;3.80;;;;;;;30.14;42.23;100243.75;1703254;82;21100;-83
2022/07/05 09:09:22;;;;;;;5.37;4.05;;;;;;;30.24;42.34;100247.95;1695954;83;21160;-83
2022/07/05 09:11:48;;;;;;;6.80;4.30;;;;;;;30.34;42.31;100244.52;1683867;83;22557;-81
2022/07/05 09:14:23;;;;;;;4.85;3.98;;;;;;;30.46;41.95;100239.20;1695408;81;21104;-84
2022/07/05 09:16:49;;;;;;;4.45;3.85;;;;;;;30.63;41.57;100238.30;1693574;83;21163;-81
2022/07/05 09:19:17;;;;;;;7.60;4.35;;;;;;;30.76;40.41;100238.72;1690314;83;21068;-84
2022/07/05 09:21:43;;;;;;;3.92;3.52;;;;;;;30.93;40.58;100241.88;1693155;83;21045;-81
2022/07/05 09:24:11;;;;;;;5.03;3.87;;;;;;;31.12;39.90;100240.41;1693753;83;21793;-79
2022/07/05 09:26:44;;;;;;;13.88;3.72;;;;;;;31.33;39.89;100235.95;1692960;83;21622;-78
2022/07/05 09:29:17;;;;;;;5.37;3.10;;;;;;;31.54;39.11;100226.81;1697273;83;21108;-80
2022/07/05 09:31:49;;;;;;;5.37;2.92;;;;;;;31.77;39.30;100222.89;1715770;83;21092;-81
2022/07/05 09:34:17;;;;;;;8.83;2.83;;;;;;;32.00;37.79;100225.72;1700050;83;21531;-81
2022/07/05 09:36:58;;;;;;;4.20;2.72;;;;;;;32.11;37.16;100222.48;1693169;83;21946;-78
2022/07/05 09:39:36;;;;;;;5.65;2.85;;;;;;;32.22;37.63;100226.06;1697269;83;21141;-82
2022/07/05 09:42:24;;;;;;;4.67;2.67;;;;;;;32.33;36.64;100223.67;1698976;83;20985;-81
2022/07/05 09:44:54;;;;;;;5.75;2.65;;;;;;;32.39;35.65;100224.79;1693453;83;21084;-82
2022/07/05 09:47:28;;;;;;;4.28;3.35;;;;;;;32.43;35.81;100227.28;1713512;83;21072;-81
2022/07/05 09:49:56;;;;;;;7.67;3.15;;;;;;;32.49;35.50;100215.79;1691254;83;21899;-80
2022/07/05 09:52:37;;;;;;;5.65;2.90;;;;;;;32.67;35.57;100215.83;1705855;83;21052;-82
2022/07/05 09:55:12;;;;;;;4.45;3.05;;;;;;;32.87;34.91;100213.68;1695988;83;21076;-85
2022/07/05 09:57:40;;;;;;;3.12;2.70;;;;;;;33.08;34.40;100214.49;1708681;83;21031;-83
2022/07/05 10:00:14;;;;;;;3.50;2.90;;;;;;;33.22;34.25;100214.23;1708695;83;21504;-82
2022/07/05 10:02:45;;;;;;;4.65;2.83;;;;;;;33.35;34.60;100217.75;1694438;83;21909;-85
2022/07/05 10:05:23;;;;;;;3.67;3.07;;;;;;;33.54;33.73;100209.81;1694391;83;21420;-84
2022/07/05 10:07:54;;;;;;;5.10;2.90;;;;;;;33.66;33.29;100207.58;1694204;83;20985;-83
2022/07/05 10:10:28;;;;;;;5.12;2.85;;;;;;;33.79;33.55;100210.30;1696988;83;20978;-83
2022/07/05 10:13:00;;;;;;;7.75;3.05;;;;;;;33.98;33.73;100209.16;1720351;81;21093;-83
2022/07/05 10:15:29;;;;;;;5.87;3.02;;;;;;;34.21;32.54;100215.89;1719698;83;22617;-85
2022/07/05 10:18:10;;;;;;;3.50;2.85;;;;;;;34.26;31.59;100213.95;1694195;83;21025;-85
2022/07/05 10:20:41;;;;;;;4.80;2.87;;;;;;;34.32;32.88;100208.69;1704087;83;21074;-85
2022/07/05 10:23:16;;;;;;;5.83;3.40;;;;;;;34.47;32.07;100211.94;1702756;83;21097;-85
2022/07/05 10:25:49;;;;;;;4.28;2.55;;;;;;;34.60;32.46;100209.91;1695963;83;21527;-85
2022/07/05 10:28:16;;;;;;;4.35;3.00;;;;;;;34.78;31.53;100210.34;1694367;83;22557;-85
2022/07/05 10:30:49;;;;;;;6.17;3.00;;;;;;;34.75;31.51;100209.55;1696163;83;20945;-84
2022/07/05 10:33:20;;;;;;;4.15;2.65;;;;;;;34.61;31.06;100208.80;1679542;83;20960;-84
2022/07/05 10:35:46;;;;;;;7.65;2.92;;;;;;;34.32;31.90;100207.31;1689934;84;21021;-83
2022/07/05 10:38:13;;;;;;;5.00;2.50;;;;;;;34.17;32.51;100209.34;1724389;82;20956;-83
2022/07/05 10:40:41;;;;;;;3.65;2.37;;;;;;;34.01;32.86;100209.41;1725808;82;21917;-84
2022/07/05 10:43:12;;;;;;;3.95;2.60;;;;;;;33.74;32.93;100207.01;1717991;82;21172;-84
2022/07/05 10:45:47;;;;;;;4.40;2.30;;;;;;;33.56;33.20;100210.34;1716796;82;21024;-83
2022/07/05 10:48:26;;;;;;;3.17;2.42;;;;;;;33.40;33.00;100208.20;1725238;82;21035;-82
2022/07/05 10:51:00;;;;;;;5.40;2.50;;;;;;;33.36;34.03;100209.84;1712240;82;21475;-84
2022/07/05 10:53:32;;;;;;;4.28;2.12;;;;;;;33.45;34.26;100211.47;1728100;82;21931;-84
2022/07/05 10:56:05;;;;;;;;;;;;;;;33.63;34.59;100206.77;1737803;82;21383;-84
2022/07/05 10:58:41;;;;;;;5.40;2.40;;;;;;;33.91;32.59;100205.34;1716310;82;20149;-84
2022/07/05 11:01:25;;;;;;;4.30;2.30;;;;;;;34.05;32.73;100205.54;1715913;82;20996;-84
2022/07/05 11:04:15;;;;;;;9.40;2.35;;;;;;;34.26;31.56;100200.77;1734288;82;20929;-84
2022/07/05 11:06:42;;;;;;;6.62;2.50;;;;;;;34.45;31.94;100205.89;1716634;82;21945;-84
2022/07/05 11:09:16;;;;;;;3.25;2.30;;;;;;;34.72;31.50;100202.13;1716230;82;21005;-83
2022/07/05 11:11:45;;;;;;;9.00;2.63;;;;;;;34.86;31.25;100194.64;1719789;82;21563;-84
2022/07/05 11:14:27;;;;;;;7.20;2.60;;;;;;;34.93;30.58;100196.51;1714512;82;20960;-84
2022/07/05 11:17:22;;;;;;;6.65;2.67;;;;;;;34.87;29.80;100198.47;1718582;82;21031;-84
2022/07/05 11:20:13;;;;;;;7.85;2.95;;;;;;;34.79;30.56;100203.75;1721162;82;21940;-83
2022/07/05 11:23:08;;;;;;;4.95;2.40;;;;;;;34.91;30.49;100200.10;1716635;82;21017;-84
2022/07/05 11:25:38;;;;;;;3.92;2.40;;;;;;;35.04;28.88;100194.52;1716592;82;21052;-83
2022/07/05 11:28:09;;;;;;;3.10;2.80;;;;;;;34.90;29.25;100198.47;1702964;82;21055;-84
2022/07/05 11:30:57;;;;;;;7.42;2.60;;;;;;;34.71;29.30;100195.56;1731793;81;21051;-85